LOWK Airport Information

Runway Information
Runway 10R Length 2427 ft width 90 ft
Elevation 1470 ft Threshold 196 ft Heading 106
Runway 28L Length 2427 ft Width 90 ft
Elevation 1463 ft Threshold 196 ft Heading 286
Runway 10L Length 8924 ft width 148 ft
Elevation 1470 ft Threshold 656 ft Heading 106
Runway 28R Length 8924 ft Width 148 ft
Elevation 1445 ft Threshold ft Heading 286
Airport Frequencies
Type APP Name APP Frequency 126.825 MHZ
Type ATIS Name ATIS Frequency 124.075 MHZ
Type TWR Name TWR Frequency 118.1 MHZ
Airport Navaids
Type VOR-DME Name Klagenfurt Frequency 113100 KHZ
Type NDB Name Klagenfurt Frequency 374 KHZ
Type NDB Name Klagenfurt Frequency 405 KHZ
Type VOR-DME Name Villach Frequency 112900 KHZ
Airport Weather Information & NOTAM
ADDS - METARS form results

(2158 UTC 24 June 2022)
Data provider http://aviationweather.gov/metar/data/
 
METAR text: LOWK 242150Z AUTO VRB03KT 9999 FEW012 18/17 Q1012 NOSIG
Conditions at: LOWK (KLAGENFURT(CIV/M, AT) observed 2150 UTC 24 June 2022
Temperature: 18.0°C (64°F)
Dewpoint: 17.0°C (63°F) [RH = 94%]
Pressure (altimeter): 29.88 inches Hg (1012.0 mb)
Winds: variable direction winds at 3 MPH (3 knots; 1.5 m/s)
Visibility: 6 or more miles (10+ km)
Ceiling: at least 12,000 feet AGL
Clouds: few clouds at 1200 feet AGL
Weather: no significant weather observed at this time

METAR text: LOWK 242120Z AUTO 22004KT 190V250 9999 FEW015 18/17 Q1012 NOSIG
Conditions at: LOWK (KLAGENFURT(CIV/M, AT) observed 2120 UTC 24 June 2022
Temperature: 18.0°C (64°F)
Dewpoint: 17.0°C (63°F) [RH = 94%]
Pressure (altimeter): 29.88 inches Hg (1012.0 mb)
Winds: from the SW (220 degrees) at 5 MPH (4 knots; 2.1 m/s)
Visibility: 6 or more miles (10+ km)
Ceiling: at least 12,000 feet AGL
Clouds: few clouds at 1500 feet AGL
Weather: no significant weather observed at this time

Forecast for: AMD
Text: TAF AMD LOWK 242052Z 2420/2518 VRB05KT 9999 FEW060 TX28/2514Z TN16/2504Z
Forecast period: 2000 UTC 24 June 2022 to 1800 UTC 25 June 2022
Forecast type: FROM: standard forecast or significant change
Winds: variable direction winds at 6 MPH (5 knots; 2.6 m/s)
Visibility: 6 or more miles (10+ km)
Ceiling: at least 12,000 feet AGL
Clouds: few clouds at 6000 feet AGL
Weather: no significant weather forecast for this period
Text: TEMPO 2420/2422 SHRA FEW050CB
Forecast period: 2000 to 2200 UTC 24 June 2022
Forecast type: TEMPORARY: The following changes expected for less than half the time period
Visibility: missing
Ceiling: at least 12,000 feet AGL
Clouds: few clouds at 5000 feet AGL
Weather: SHRA  (rain showers)
Text: TEMPO 2510/2515 FEW060CB
Forecast period: 1000 to 1500 UTC 25 June 2022
Forecast type: TEMPORARY: The following changes expected for less than half the time period
Visibility: missing
Ceiling: at least 12,000 feet AGL
Clouds: few clouds at 6000 feet AGL
Weather: no significant weather forecast for this period